sensor_id;sensor_type;location;lat;lon;timestamp;temperature;humidity
13409;DHT22;6775;49.574;11.170;2023-11-21T00:00:38;7.80;99.90
13409;DHT22;6775;49.574;11.170;2023-11-21T00:03:06;7.80;99.90
13409;DHT22;6775;49.574;11.170;2023-11-21T00:05:34;7.70;99.90
13409;DHT22;6775;49.574;11.170;2023-11-21T00:08:04;7.70;99.90
13409;DHT22;6775;49.574;11.170;2023-11-21T00:10:33;7.80;99.90
13409;DHT22;6775;49.574;11.170;2023-11-21T00:13:04;7.80;99.90
13409;DHT22;6775;49.574;11.170;2023-11-21T00:15:32;7.80;99.90
13409;DHT22;6775;49.574;11.170;2023-11-21T00:18:00;7.80;99.90
13409;DHT22;6775;49.574;11.170;2023-11-21T00:20:29;7.90;99.90
13409;DHT22;6775;49.574;11.170;2023-11-21T00:22:57;7.90;99.90
13409;DHT22;6775;49.574;11.170;2023-11-21T00:25:27;7.90;99.90
13409;DHT22;6775;49.574;11.170;2023-11-21T00:27:55;8.00;99.90
13409;DHT22;6775;49.574;11.170;2023-11-21T00:30:23;7.90;99.90
13409;DHT22;6775;49.574;11.170;2023-11-21T00:32:51;7.90;99.90
13409;DHT22;6775;49.574;11.170;2023-11-21T00:35:19;7.90;99.90
13409;DHT22;6775;49.574;11.170;2023-11-21T00:37:47;7.90;99.90
13409;DHT22;6775;49.574;11.170;2023-11-21T00:40:16;8.00;99.90
13409;DHT22;6775;49.574;11.170;2023-11-21T00:42:49;7.90;99.90
13409;DHT22;6775;49.574;11.170;2023-11-21T00:45:17;8.00;99.90
13409;DHT22;6775;49.574;11.170;2023-11-21T00:47:45;8.00;99.90
13409;DHT22;6775;49.574;11.170;2023-11-21T00:50:13;7.90;99.90
13409;DHT22;6775;49.574;11.170;2023-11-21T00:52:42;8.00;99.90
13409;DHT22;6775;49.574;11.170;2023-11-21T00:55:10;8.00;99.90
13409;DHT22;6775;49.574;11.170;2023-11-21T00:57:38;8.00;99.90
13409;DHT22;6775;49.574;11.170;2023-11-21T01:00:08;8.00;99.90
13409;DHT22;6775;49.574;11.170;2023-11-21T01:02:40;7.90;99.90
13409;DHT22;6775;49.574;11.170;2023-11-21T01:05:08;8.00;99.90
13409;DHT22;6775;49.574;11.170;2023-11-21T01:07:36;8.00;99.90
13409;DHT22;6775;49.574;11.170;2023-11-21T01:10:05;8.00;99.90
13409;DHT22;6775;49.574;11.170;2023-11-21T01:12:34;8.00;99.90
13409;DHT22;6775;49.574;11.170;2023-11-21T01:15:04;8.00;99.90
13409;DHT22;6775;49.574;11.170;2023-11-21T01:17:36;7.90;99.90
13409;DHT22;6775;49.574;11.170;2023-11-21T01:20:05;7.90;99.90
13409;DHT22;6775;49.574;11.170;2023-11-21T01:22:39;7.90;99.90
13409;DHT22;6775;49.574;11.170;2023-11-21T01:25:07;7.90;99.90
13409;DHT22;6775;49.574;11.170;2023-11-21T01:27:37;7.90;99.90
13409;DHT22;6775;49.574;11.170;2023-11-21T01:30:06;7.90;99.90
13409;DHT22;6775;49.574;11.170;2023-11-21T01:32:38;7.90;99.90
13409;DHT22;6775;49.574;11.170;2023-11-21T01:35:08;7.80;99.90
13409;DHT22;6775;49.574;11.170;2023-11-21T01:37:37;7.80;99.90
13409;DHT22;6775;49.574;11.170;2023-11-21T01:40:06;7.80;99.90
13409;DHT22;6775;49.574;11.170;2023-11-21T01:42:36;7.80;99.90
13409;DHT22;6775;49.574;11.170;2023-11-21T01:45:05;8.00;99.90
13409;DHT22;6775;49.574;11.170;2023-11-21T01:47:34;7.80;99.90
13409;DHT22;6775;49.574;11.170;2023-11-21T01:50:07;7.80;99.90
13409;DHT22;6775;49.574;11.170;2023-11-21T01:52:38;7.80;99.90
13409;DHT22;6775;49.574;11.170;2023-11-21T01:55:08;7.90;99.90
13409;DHT22;6775;49.574;11.170;2023-11-21T01:57:37;7.90;99.90
13409;DHT22;6775;49.574;11.170;2023-11-21T02:00:06;7.90;99.90
13409;DHT22;6775;49.574;11.170;2023-11-21T02:02:42;7.80;99.90
13409;DHT22;6775;49.574;11.170;2023-11-21T02:05:12;7.90;99.90
13409;DHT22;6775;49.574;11.170;2023-11-21T02:07:42;7.80;99.90
13409;DHT22;6775;49.574;11.170;2023-11-21T02:10:10;8.10;99.90
13409;DHT22;6775;49.574;11.170;2023-11-21T02:12:41;7.90;99.90
13409;DHT22;6775;49.574;11.170;2023-11-21T02:15:10;7.90;99.90
13409;DHT22;6775;49.574;11.170;2023-11-21T02:17:43;8.00;99.90
13409;DHT22;6775;49.574;11.170;2023-11-21T02:20:13;7.90;99.90
13409;DHT22;6775;49.574;11.170;2023-11-21T02:22:42;7.90;99.90
13409;DHT22;6775;49.574;11.170;2023-11-21T02:25:12;7.90;99.90
13409;DHT22;6775;49.574;11.170;2023-11-21T02:27:40;7.80;99.90
13409;DHT22;6775;49.574;11.170;2023-11-21T02:30:10;7.80;99.90
13409;DHT22;6775;49.574;11.170;2023-11-21T02:32:40;7.80;99.90
13409;DHT22;6775;49.574;11.170;2023-11-21T02:35:15;7.80;99.90
13409;DHT22;6775;49.574;11.170;2023-11-21T02:37:43;7.80;99.90
13409;DHT22;6775;49.574;11.170;2023-11-21T02:40:13;7.80;99.90
13409;DHT22;6775;49.574;11.170;2023-11-21T02:42:44;7.80;99.90
13409;DHT22;6775;49.574;11.170;2023-11-21T02:45:14;7.80;99.90
13409;DHT22;6775;49.574;11.170;2023-11-21T02:47:43;8.10;99.90
13409;DHT22;6775;49.574;11.170;2023-11-21T02:50:11;7.80;99.90
13409;DHT22;6775;49.574;11.170;2023-11-21T02:52:40;7.90;99.90
13409;DHT22;6775;49.574;11.170;2023-11-21T02:55:08;7.90;99.90
13409;DHT22;6775;49.574;11.170;2023-11-21T02:57:38;7.90;99.90
13409;DHT22;6775;49.574;11.170;2023-11-21T03:00:07;8.00;99.90
13409;DHT22;6775;49.574;11.170;2023-11-21T03:02:39;7.90;99.90
13409;DHT22;6775;49.574;11.170;2023-11-21T03:05:08;7.90;99.90
13409;DHT22;6775;49.574;11.170;2023-11-21T03:07:36;7.80;99.90
13409;DHT22;6775;49.574;11.170;2023-11-21T03:10:06;7.80;99.90
13409;DHT22;6775;49.574;11.170;2023-11-21T03:12:39;7.90;99.90
13409;DHT22;6775;49.574;11.170;2023-11-21T03:15:08;7.90;99.90
13409;DHT22;6775;49.574;11.170;2023-11-21T03:17:37;8.00;99.90
13409;DHT22;6775;49.574;11.170;2023-11-21T03:20:06;8.00;99.90
13409;DHT22;6775;49.574;11.170;2023-11-21T03:22:37;8.00;99.90
13409;DHT22;6775;49.574;11.170;2023-11-21T03:25:07;8.00;99.90
13409;DHT22;6775;49.574;11.170;2023-11-21T03:27:39;8.00;99.90
13409;DHT22;6775;49.574;11.170;2023-11-21T03:30:09;7.90;99.90
13409;DHT22;6775;49.574;11.170;2023-11-21T03:32:38;7.90;99.90
13409;DHT22;6775;49.574;11.170;2023-11-21T03:35:07;7.90;99.90
13409;DHT22;6775;49.574;11.170;2023-11-21T03:37:35;7.90;99.90
13409;DHT22;6775;49.574;11.170;2023-11-21T03:40:06;7.80;99.90
13409;DHT22;6775;49.574;11.170;2023-11-21T03:42:35;7.90;99.90
13409;DHT22;6775;49.574;11.170;2023-11-21T03:45:06;7.80;99.90
13409;DHT22;6775;49.574;11.170;2023-11-21T03:47:35;7.80;99.90
13409;DHT22;6775;49.574;11.170;2023-11-21T03:50:04;7.80;99.90
13409;DHT22;6775;49.574;11.170;2023-11-21T03:52:32;7.80;99.90
13409;DHT22;6775;49.574;11.170;2023-11-21T03:55:01;7.90;99.90
13409;DHT22;6775;49.574;11.170;2023-11-21T03:57:30;8.00;99.90
13409;DHT22;6775;49.574;11.170;2023-11-21T03:59:58;8.00;99.90
13409;DHT22;6775;49.574;11.170;2023-11-21T04:02:27;7.80;99.90
13409;DHT22;6775;49.574;11.170;2023-11-21T04:04:56;7.80;99.90
13409;DHT22;6775;49.574;11.170;2023-11-21T04:07:24;7.80;99.90
13409;DHT22;6775;49.574;11.170;2023-11-21T04:09:52;7.80;99.90
13409;DHT22;6775;49.574;11.170;2023-11-21T04:12:21;7.80;99.90
13409;DHT22;6775;49.574;11.170;2023-11-21T04:14:49;7.80;99.90
13409;DHT22;6775;49.574;11.170;2023-11-21T04:17:20;7.80;99.90
13409;DHT22;6775;49.574;11.170;2023-11-21T04:19:50;7.80;99.90
13409;DHT22;6775;49.574;11.170;2023-11-21T04:22:18;7.90;99.90
13409;DHT22;6775;49.574;11.170;2023-11-21T04:24:46;7.90;99.90
13409;DHT22;6775;49.574;11.170;2023-11-21T04:27:14;7.80;99.90
13409;DHT22;6775;49.574;11.170;2023-11-21T04:29:44;7.90;99.90
13409;DHT22;6775;49.574;11.170;2023-11-21T04:32:12;7.90;99.90
13409;DHT22;6775;49.574;11.170;2023-11-21T04:34:40;7.80;99.90
13409;DHT22;6775;49.574;11.170;2023-11-21T04:37:10;7.90;99.90
13409;DHT22;6775;49.574;11.170;2023-11-21T04:39:38;7.90;99.90
13409;DHT22;6775;49.574;11.170;2023-11-21T04:42:06;7.90;99.90
13409;DHT22;6775;49.574;11.170;2023-11-21T04:44:34;7.90;99.90
13409;DHT22;6775;49.574;11.170;2023-11-21T04:47:02;8.10;99.90
13409;DHT22;6775;49.574;11.170;2023-11-21T04:49:31;7.90;99.90
13409;DHT22;6775;49.574;11.170;2023-11-21T04:51:59;7.80;99.90
13409;DHT22;6775;49.574;11.170;2023-11-21T04:54:30;7.90;99.90
13409;DHT22;6775;49.574;11.170;2023-11-21T04:56:58;7.80;99.90
13409;DHT22;6775;49.574;11.170;2023-11-21T04:59:27;7.90;99.90
13409;DHT22;6775;49.574;11.170;2023-11-21T05:01:55;7.90;99.90
13409;DHT22;6775;49.574;11.170;2023-11-21T05:04:23;7.80;99.90
13409;DHT22;6775;49.574;11.170;2023-11-21T05:06:51;7.90;99.90
13409;DHT22;6775;49.574;11.170;2023-11-21T05:09:19;8.10;99.90
13409;DHT22;6775;49.574;11.170;2023-11-21T05:11:50;7.90;99.90
13409;DHT22;6775;49.574;11.170;2023-11-21T05:14:20;7.90;99.90
13409;DHT22;6775;49.574;11.170;2023-11-21T05:16:48;7.90;99.90
13409;DHT22;6775;49.574;11.170;2023-11-21T05:19:17;7.90;99.90
13409;DHT22;6775;49.574;11.170;2023-11-21T05:21:45;7.90;99.90
13409;DHT22;6775;49.574;11.170;2023-11-21T05:24:14;7.90;99.90
13409;DHT22;6775;49.574;11.170;2023-11-21T05:26:42;7.90;99.90
13409;DHT22;6775;49.574;11.170;2023-11-21T05:29:11;7.90;99.90
13409;DHT22;6775;49.574;11.170;2023-11-21T05:31:39;7.90;99.90
13409;DHT22;6775;49.574;11.170;2023-11-21T05:34:07;7.90;99.90
13409;DHT22;6775;49.574;11.170;2023-11-21T05:36:35;7.80;99.90
13409;DHT22;6775;49.574;11.170;2023-11-21T05:39:03;7.90;99.90
13409;DHT22;6775;49.574;11.170;2023-11-21T05:41:31;7.80;99.90
13409;DHT22;6775;49.574;11.170;2023-11-21T05:43:59;7.80;99.90
13409;DHT22;6775;49.574;11.170;2023-11-21T05:46:29;7.80;99.90
13409;DHT22;6775;49.574;11.170;2023-11-21T05:48:57;7.80;99.90
13409;DHT22;6775;49.574;11.170;2023-11-21T05:51:25;7.80;99.90
13409;DHT22;6775;49.574;11.170;2023-11-21T05:53:53;7.80;99.90
13409;DHT22;6775;49.574;11.170;2023-11-21T05:56:21;7.80;99.90
13409;DHT22;6775;49.574;11.170;2023-11-21T05:58:49;7.80;99.90
13409;DHT22;6775;49.574;11.170;2023-11-21T06:01:17;7.80;99.90
13409;DHT22;6775;49.574;11.170;2023-11-21T06:03:47;7.80;99.90
13409;DHT22;6775;49.574;11.170;2023-11-21T06:06:15;7.80;99.90
13409;DHT22;6775;49.574;11.170;2023-11-21T06:08:43;7.90;99.90
13409;DHT22;6775;49.574;11.170;2023-11-21T06:11:11;7.90;99.90
13409;DHT22;6775;49.574;11.170;2023-11-21T06:13:40;7.90;99.90
13409;DHT22;6775;49.574;11.170;2023-11-21T06:16:08;7.90;99.90
13409;DHT22;6775;49.574;11.170;2023-11-21T06:18:36;7.90;99.90
13409;DHT22;6775;49.574;11.170;2023-11-21T06:21:09;7.90;99.90
13409;DHT22;6775;49.574;11.170;2023-11-21T06:23:37;7.80;99.90
13409;DHT22;6775;49.574;11.170;2023-11-21T06:26:06;7.90;99.90
13409;DHT22;6775;49.574;11.170;2023-11-21T06:28:35;7.90;99.90
13409;DHT22;6775;49.574;11.170;2023-11-21T06:31:04;7.90;99.90
13409;DHT22;6775;49.574;11.170;2023-11-21T06:33:32;7.90;99.90
13409;DHT22;6775;49.574;11.170;2023-11-21T06:36:00;8.00;99.90
13409;DHT22;6775;49.574;11.170;2023-11-21T06:38:30;8.00;99.90
13409;DHT22;6775;49.574;11.170;2023-11-21T06:40:59;8.00;99.90
13409;DHT22;6775;49.574;11.170;2023-11-21T06:43:29;8.10;99.90
13409;DHT22;6775;49.574;11.170;2023-11-21T06:45:58;8.10;99.90
13409;DHT22;6775;49.574;11.170;2023-11-21T06:48:26;8.10;99.90
13409;DHT22;6775;49.574;11.170;2023-11-21T06:50:54;8.10;99.90
13409;DHT22;6775;49.574;11.170;2023-11-21T06:53:22;8.10;99.90
13409;DHT22;6775;49.574;11.170;2023-11-21T06:55:52;8.10;99.90
13409;DHT22;6775;49.574;11.170;2023-11-21T06:58:20;8.10;99.90
13409;DHT22;6775;49.574;11.170;2023-11-21T07:00:48;8.10;99.90
13409;DHT22;6775;49.574;11.170;2023-11-21T07:03:19;8.10;99.90
13409;DHT22;6775;49.574;11.170;2023-11-21T07:05:48;8.10;99.90
13409;DHT22;6775;49.574;11.170;2023-11-21T07:08:16;8.20;99.90
13409;DHT22;6775;49.574;11.170;2023-11-21T07:10:44;8.20;99.90
13409;DHT22;6775;49.574;11.170;2023-11-21T07:13:13;8.20;99.90
13409;DHT22;6775;49.574;11.170;2023-11-21T07:15:41;8.20;99.90
13409;DHT22;6775;49.574;11.170;2023-11-21T07:18:10;8.20;99.90
13409;DHT22;6775;49.574;11.170;2023-11-21T07:20:38;8.30;99.90
13409;DHT22;6775;49.574;11.170;2023-11-21T07:23:06;8.20;99.90
13409;DHT22;6775;49.574;11.170;2023-11-21T07:25:34;8.20;99.90
13409;DHT22;6775;49.574;11.170;2023-11-21T07:28:03;8.20;99.90
13409;DHT22;6775;49.574;11.170;2023-11-21T07:30:33;8.20;99.90
13409;DHT22;6775;49.574;11.170;2023-11-21T07:33:01;8.20;99.90
13409;DHT22;6775;49.574;11.170;2023-11-21T07:35:29;8.20;99.90
13409;DHT22;6775;49.574;11.170;2023-11-21T07:37:57;8.20;99.90
13409;DHT22;6775;49.574;11.170;2023-11-21T07:40:25;8.30;99.90
13409;DHT22;6775;49.574;11.170;2023-11-21T07:42:54;8.30;99.90
13409;DHT22;6775;49.574;11.170;2023-11-21T07:45:23;8.40;99.90
13409;DHT22;6775;49.574;11.170;2023-11-21T07:47:55;8.50;99.90
13409;DHT22;6775;49.574;11.170;2023-11-21T07:50:24;8.50;99.90
13409;DHT22;6775;49.574;11.170;2023-11-21T07:52:53;8.80;99.90
13409;DHT22;6775;49.574;11.170;2023-11-21T07:55:21;8.50;99.90
13409;DHT22;6775;49.574;11.170;2023-11-21T07:57:49;8.50;99.90
13409;DHT22;6775;49.574;11.170;2023-11-21T08:00:18;8.50;99.90
13409;DHT22;6775;49.574;11.170;2023-11-21T08:02:47;8.50;99.90
13409;DHT22;6775;49.574;11.170;2023-11-21T08:05:17;8.50;99.90
13409;DHT22;6775;49.574;11.170;2023-11-21T08:07:58;8.60;99.90
13409;DHT22;6775;49.574;11.170;2023-11-21T08:10:26;8.50;99.90
13409;DHT22;6775;49.574;11.170;2023-11-21T08:12:54;8.50;99.90
13409;DHT22;6775;49.574;11.170;2023-11-21T08:15:22;8.60;99.90
13409;DHT22;6775;49.574;11.170;2023-11-21T08:17:50;8.60;99.90
13409;DHT22;6775;49.574;11.170;2023-11-21T08:20:19;8.60;99.90
13409;DHT22;6775;49.574;11.170;2023-11-21T08:22:49;8.60;99.90
13409;DHT22;6775;49.574;11.170;2023-11-21T08:25:18;8.60;99.90
13409;DHT22;6775;49.574;11.170;2023-11-21T08:27:47;8.70;99.90
13409;DHT22;6775;49.574;11.170;2023-11-21T08:30:15;8.70;99.90
13409;DHT22;6775;49.574;11.170;2023-11-21T08:32:45;8.80;99.90
13409;DHT22;6775;49.574;11.170;2023-11-21T08:35:13;8.90;99.90
13409;DHT22;6775;49.574;11.170;2023-11-21T08:37:44;8.80;99.90
13409;DHT22;6775;49.574;11.170;2023-11-21T08:40:12;8.90;99.90
13409;DHT22;6775;49.574;11.170;2023-11-21T08:42:43;8.90;99.90
13409;DHT22;6775;49.574;11.170;2023-11-21T08:45:12;8.90;99.90
13409;DHT22;6775;49.574;11.170;2023-11-21T08:47:40;8.90;99.90
13409;DHT22;6775;49.574;11.170;2023-11-21T08:50:10;9.00;99.90
13409;DHT22;6775;49.574;11.170;2023-11-21T08:52:39;9.00;99.90
13409;DHT22;6775;49.574;11.170;2023-11-21T08:55:10;9.00;99.90
13409;DHT22;6775;49.574;11.170;2023-11-21T08:57:39;8.90;99.90
13409;DHT22;6775;49.574;11.170;2023-11-21T09:00:08;8.90;99.90
13409;DHT22;6775;49.574;11.170;2023-11-21T09:02:38;8.90;99.90
13409;DHT22;6775;49.574;11.170;2023-11-21T09:05:08;8.90;99.90
13409;DHT22;6775;49.574;11.170;2023-11-21T09:07:38;8.90;99.90
13409;DHT22;6775;49.574;11.170;2023-11-21T09:10:10;8.90;99.90
13409;DHT22;6775;49.574;11.170;2023-11-21T09:12:38;8.90;99.90
13409;DHT22;6775;49.574;11.170;2023-11-21T09:15:07;9.00;99.90
13409;DHT22;6775;49.574;11.170;2023-11-21T09:17:38;9.00;99.90
13409;DHT22;6775;49.574;11.170;2023-11-21T09:20:07;9.00;99.90
13409;DHT22;6775;49.574;11.170;2023-11-21T09:22:37;9.10;99.90
13409;DHT22;6775;49.574;11.170;2023-11-21T09:25:05;9.10;99.90
13409;DHT22;6775;49.574;11.170;2023-11-21T09:27:36;9.10;99.90
13409;DHT22;6775;49.574;11.170;2023-11-21T09:30:05;9.20;99.90
13409;DHT22;6775;49.574;11.170;2023-11-21T09:32:37;9.20;99.90
13409;DHT22;6775;49.574;11.170;2023-11-21T09:35:07;9.40;99.90
13409;DHT22;6775;49.574;11.170;2023-11-21T09:37:36;9.50;99.90
13409;DHT22;6775;49.574;11.170;2023-11-21T09:40:06;9.60;99.90
13409;DHT22;6775;49.574;11.170;2023-11-21T09:42:48;9.70;99.90
13409;DHT22;6775;49.574;11.170;2023-11-21T09:45:25;9.90;99.90
13409;DHT22;6775;49.574;11.170;2023-11-21T09:47:55;10.20;99.90
13409;DHT22;6775;49.574;11.170;2023-11-21T09:50:25;10.40;99.90
13409;DHT22;6775;49.574;11.170;2023-11-21T09:52:57;10.60;99.90
13409;DHT22;6775;49.574;11.170;2023-11-21T09:55:34;10.70;99.90
13409;DHT22;6775;49.574;11.170;2023-11-21T09:58:04;10.80;99.90
13409;DHT22;6775;49.574;11.170;2023-11-21T10:00:35;10.80;99.90
13409;DHT22;6775;49.574;11.170;2023-11-21T10:03:03;10.90;99.90
13409;DHT22;6775;49.574;11.170;2023-11-21T10:05:31;11.10;99.90
13409;DHT22;6775;49.574;11.170;2023-11-21T10:08:00;11.30;99.90
13409;DHT22;6775;49.574;11.170;2023-11-21T10:10:30;11.60;99.90
13409;DHT22;6775;49.574;11.170;2023-11-21T10:13:02;12.00;99.90
13409;DHT22;6775;49.574;11.170;2023-11-21T10:15:34;12.20;99.90
13409;DHT22;6775;49.574;11.170;2023-11-21T10:18:04;12.50;99.90
13409;DHT22;6775;49.574;11.170;2023-11-21T10:20:34;13.00;99.90
13409;DHT22;6775;49.574;11.170;2023-11-21T10:23:04;13.70;99.90
13409;DHT22;6775;49.574;11.170;2023-11-21T10:25:34;14.20;99.90
13409;DHT22;6775;49.574;11.170;2023-11-21T10:28:05;14.50;99.90
13409;DHT22;6775;49.574;11.170;2023-11-21T10:30:34;14.50;99.90
13409;DHT22;6775;49.574;11.170;2023-11-21T10:33:04;14.20;99.90
13409;DHT22;6775;49.574;11.170;2023-11-21T10:35:46;13.90;99.90
13409;DHT22;6775;49.574;11.170;2023-11-21T10:38:17;13.50;99.90
13409;DHT22;6775;49.574;11.170;2023-11-21T10:40:47;13.10;99.90
13409;DHT22;6775;49.574;11.170;2023-11-21T10:43:17;12.70;99.90
13409;DHT22;6775;49.574;11.170;2023-11-21T10:45:46;12.20;99.90
13409;DHT22;6775;49.574;11.170;2023-11-21T10:48:14;11.90;99.90
13409;DHT22;6775;49.574;11.170;2023-11-21T10:50:44;11.70;99.90
13409;DHT22;6775;49.574;11.170;2023-11-21T10:53:13;11.40;99.90
13409;DHT22;6775;49.574;11.170;2023-11-21T10:55:42;11.20;99.90
13409;DHT22;6775;49.574;11.170;2023-11-21T10:58:13;11.10;99.90
13409;DHT22;6775;49.574;11.170;2023-11-21T11:00:43;11.00;99.90
13409;DHT22;6775;49.574;11.170;2023-11-21T11:03:13;11.00;99.90
13409;DHT22;6775;49.574;11.170;2023-11-21T11:05:44;11.00;99.90
13409;DHT22;6775;49.574;11.170;2023-11-21T11:08:19;11.00;99.90
13409;DHT22;6775;49.574;11.170;2023-11-21T11:10:54;11.00;99.90
13409;DHT22;6775;49.574;11.170;2023-11-21T11:13:23;11.00;99.90
13409;DHT22;6775;49.574;11.170;2023-11-21T11:15:58;11.00;99.90
13409;DHT22;6775;49.574;11.170;2023-11-21T11:18:29;10.90;99.90
13409;DHT22;6775;49.574;11.170;2023-11-21T11:21:05;10.80;99.90
13409;DHT22;6775;49.574;11.170;2023-11-21T11:23:49;10.80;99.90
13409;DHT22;6775;49.574;11.170;2023-11-21T11:26:42;10.70;99.90
13409;DHT22;6775;49.574;11.170;2023-11-21T11:29:22;10.70;99.90
13409;DHT22;6775;49.574;11.170;2023-11-21T11:32:06;10.70;99.90
13409;DHT22;6775;49.574;11.170;2023-11-21T11:34:46;10.70;99.90
13409;DHT22;6775;49.574;11.170;2023-11-21T11:37:16;10.80;99.90
13409;DHT22;6775;49.574;11.170;2023-11-21T11:39:45;10.80;99.90
13409;DHT22;6775;49.574;11.170;2023-11-21T11:42:14;10.80;99.90
13409;DHT22;6775;49.574;11.170;2023-11-21T11:44:52;10.70;99.90
13409;DHT22;6775;49.574;11.170;2023-11-21T11:47:26;10.60;99.90
13409;DHT22;6775;49.574;11.170;2023-11-21T11:50:02;10.60;99.90
13409;DHT22;6775;49.574;11.170;2023-11-21T11:52:36;10.50;99.90
13409;DHT22;6775;49.574;11.170;2023-11-21T11:55:10;10.40;99.90
13409;DHT22;6775;49.574;11.170;2023-11-21T11:57:41;10.40;99.90
13409;DHT22;6775;49.574;11.170;2023-11-21T12:00:17;10.40;99.90
13409;DHT22;6775;49.574;11.170;2023-11-21T12:02:50;10.40;99.90
13409;DHT22;6775;49.574;11.170;2023-11-21T12:05:20;10.30;99.90
13409;DHT22;6775;49.574;11.170;2023-11-21T12:07:51;10.30;99.90
13409;DHT22;6775;49.574;11.170;2023-11-21T12:10:21;10.40;99.90
13409;DHT22;6775;49.574;11.170;2023-11-21T12:12:52;10.30;99.90
13409;DHT22;6775;49.574;11.170;2023-11-21T12:15:22;10.30;99.90
13409;DHT22;6775;49.574;11.170;2023-11-21T12:17:52;10.30;99.90
13409;DHT22;6775;49.574;11.170;2023-11-21T12:20:22;10.20;99.90
13409;DHT22;6775;49.574;11.170;2023-11-21T12:22:52;10.30;99.90
13409;DHT22;6775;49.574;11.170;2023-11-21T12:25:22;10.30;99.90
13409;DHT22;6775;49.574;11.170;2023-11-21T12:27:52;10.30;99.90
13409;DHT22;6775;49.574;11.170;2023-11-21T12:30:22;10.30;99.90
13409;DHT22;6775;49.574;11.170;2023-11-21T12:32:54;10.30;99.90
13409;DHT22;6775;49.574;11.170;2023-11-21T12:35:25;10.40;99.90
13409;DHT22;6775;49.574;11.170;2023-11-21T12:37:55;10.40;99.90
13409;DHT22;6775;49.574;11.170;2023-11-21T12:40:25;10.30;99.90
13409;DHT22;6775;49.574;11.170;2023-11-21T12:42:55;10.30;99.90
13409;DHT22;6775;49.574;11.170;2023-11-21T12:45:26;10.40;99.90
13409;DHT22;6775;49.574;11.170;2023-11-21T12:48:00;10.50;99.90
13409;DHT22;6775;49.574;11.170;2023-11-21T12:50:34;10.60;99.90
13409;DHT22;6775;49.574;11.170;2023-11-21T12:53:05;10.70;99.90
13409;DHT22;6775;49.574;11.170;2023-11-21T12:55:37;10.80;99.90
13409;DHT22;6775;49.574;11.170;2023-11-21T12:58:06;10.80;99.90
13409;DHT22;6775;49.574;11.170;2023-11-21T13:00:39;10.90;99.90
13409;DHT22;6775;49.574;11.170;2023-11-21T13:03:13;11.00;99.90
13409;DHT22;6775;49.574;11.170;2023-11-21T13:05:45;11.10;99.90
13409;DHT22;6775;49.574;11.170;2023-11-21T13:08:17;11.30;99.90
13409;DHT22;6775;49.574;11.170;2023-11-21T13:10:49;11.40;99.90
13409;DHT22;6775;49.574;11.170;2023-11-21T13:13:19;11.30;99.90
13409;DHT22;6775;49.574;11.170;2023-11-21T13:15:52;11.20;99.90
13409;DHT22;6775;49.574;11.170;2023-11-21T13:18:23;11.20;99.90
13409;DHT22;6775;49.574;11.170;2023-11-21T13:20:53;11.30;99.90
13409;DHT22;6775;49.574;11.170;2023-11-21T13:23:23;11.30;99.90
13409;DHT22;6775;49.574;11.170;2023-11-21T13:25:52;11.40;99.90
13409;DHT22;6775;49.574;11.170;2023-11-21T13:28:30;11.60;99.90
13409;DHT22;6775;49.574;11.170;2023-11-21T13:31:01;12.50;99.90
13409;DHT22;6775;49.574;11.170;2023-11-21T13:33:38;13.70;99.90
13409;DHT22;6775;49.574;11.170;2023-11-21T13:36:08;14.90;99.90
13409;DHT22;6775;49.574;11.170;2023-11-21T13:38:37;15.10;99.90
13409;DHT22;6775;49.574;11.170;2023-11-21T13:41:09;14.60;99.90
13409;DHT22;6775;49.574;11.170;2023-11-21T13:43:40;14.00;99.90
13409;DHT22;6775;49.574;11.170;2023-11-21T13:46:10;13.40;99.90
13409;DHT22;6775;49.574;11.170;2023-11-21T13:48:45;12.90;99.90
13409;DHT22;6775;49.574;11.170;2023-11-21T13:51:18;12.50;99.90
13409;DHT22;6775;49.574;11.170;2023-11-21T13:53:48;12.00;99.90
13409;DHT22;6775;49.574;11.170;2023-11-21T13:56:18;11.70;99.90
13409;DHT22;6775;49.574;11.170;2023-11-21T13:58:51;11.50;99.90
13409;DHT22;6775;49.574;11.170;2023-11-21T14:01:22;11.30;99.90
13409;DHT22;6775;49.574;11.170;2023-11-21T14:04:10;11.20;99.90
13409;DHT22;6775;49.574;11.170;2023-11-21T14:06:47;11.10;99.90
13409;DHT22;6775;49.574;11.170;2023-11-21T14:09:19;11.10;99.90
13409;DHT22;6775;49.574;11.170;2023-11-21T14:11:51;11.10;99.90
13409;DHT22;6775;49.574;11.170;2023-11-21T14:14:21;11.10;99.90
13409;DHT22;6775;49.574;11.170;2023-11-21T14:16:51;11.00;99.90
13409;DHT22;6775;49.574;11.170;2023-11-21T14:19:21;11.00;99.90
13409;DHT22;6775;49.574;11.170;2023-11-21T14:21:53;10.90;99.90
13409;DHT22;6775;49.574;11.170;2023-11-21T14:24:22;10.80;99.90
13409;DHT22;6775;49.574;11.170;2023-11-21T14:26:51;10.60;99.90
13409;DHT22;6775;49.574;11.170;2023-11-21T14:29:20;10.60;99.90
13409;DHT22;6775;49.574;11.170;2023-11-21T14:31:50;10.40;99.90
13409;DHT22;6775;49.574;11.170;2023-11-21T14:34:22;10.30;99.90
13409;DHT22;6775;49.574;11.170;2023-11-21T14:36:50;10.20;99.90
13409;DHT22;6775;49.574;11.170;2023-11-21T14:39:18;10.10;99.90
13409;DHT22;6775;49.574;11.170;2023-11-21T14:41:50;10.10;99.90
13409;DHT22;6775;49.574;11.170;2023-11-21T14:44:19;10.00;99.90
13409;DHT22;6775;49.574;11.170;2023-11-21T14:46:52;10.00;99.90
13409;DHT22;6775;49.574;11.170;2023-11-21T14:49:25;9.80;99.90
13409;DHT22;6775;49.574;11.170;2023-11-21T14:52:00;9.80;99.90
13409;DHT22;6775;49.574;11.170;2023-11-21T14:54:28;9.70;99.90
13409;DHT22;6775;49.574;11.170;2023-11-21T14:57:13;9.70;99.90
13409;DHT22;6775;49.574;11.170;2023-11-21T14:59:45;9.60;99.90
13409;DHT22;6775;49.574;11.170;2023-11-21T15:02:17;9.50;99.90
13409;DHT22;6775;49.574;11.170;2023-11-21T15:04:50;9.40;99.90
13409;DHT22;6775;49.574;11.170;2023-11-21T15:07:19;9.40;99.90
13409;DHT22;6775;49.574;11.170;2023-11-21T15:09:47;9.60;99.90
13409;DHT22;6775;49.574;11.170;2023-11-21T15:12:16;9.40;99.90
13409;DHT22;6775;49.574;11.170;2023-11-21T15:14:44;9.40;99.90
13409;DHT22;6775;49.574;11.170;2023-11-21T15:17:16;9.30;99.90
13409;DHT22;6775;49.574;11.170;2023-11-21T15:19:51;9.30;99.90
13409;DHT22;6775;49.574;11.170;2023-11-21T15:22:20;9.20;99.90
13409;DHT22;6775;49.574;11.170;2023-11-21T15:24:48;9.20;99.90
13409;DHT22;6775;49.574;11.170;2023-11-21T15:27:17;9.20;99.90
13409;DHT22;6775;49.574;11.170;2023-11-21T15:29:45;9.20;99.90
13409;DHT22;6775;49.574;11.170;2023-11-21T15:32:13;9.10;99.90
13409;DHT22;6775;49.574;11.170;2023-11-21T15:34:41;9.10;99.90
13409;DHT22;6775;49.574;11.170;2023-11-21T15:37:11;9.10;99.90
13409;DHT22;6775;49.574;11.170;2023-11-21T15:39:39;9.00;99.90
13409;DHT22;6775;49.574;11.170;2023-11-21T15:42:08;9.00;99.90
13409;DHT22;6775;49.574;11.170;2023-11-21T15:44:36;9.00;99.90
13409;DHT22;6775;49.574;11.170;2023-11-21T15:47:05;8.90;99.90
13409;DHT22;6775;49.574;11.170;2023-11-21T15:49:35;8.90;99.90
13409;DHT22;6775;49.574;11.170;2023-11-21T15:52:05;8.80;99.90
13409;DHT22;6775;49.574;11.170;2023-11-21T15:54:38;8.80;99.90
13409;DHT22;6775;49.574;11.170;2023-11-21T15:57:07;8.70;99.90
13409;DHT22;6775;49.574;11.170;2023-11-21T15:59:39;8.70;99.90